Armadores I — SY8463 — position and weather

sailwx.info

Track history (hours):
 
Tides and Currents Weather Stations Pressure Air Temp Water Temp Dewpoint Dewpoint Depression Visibility Wind Speed Wind Dir Waves Ship Positions

Armadores I

Last reported at 2015-Mar-01 15:33 UTC. Time now 2015-Mar-02 01:06 UTC.
Position N 37°57' E 023°36'.

Length 32 m; draft 5.3 m.

Type: Tug. MMSI: 240694000.

Date/timePositionNaut miles runAvg speedWind from/ knotsBaromVisibWave heightAir tempDewpointWater temp
2015-Mar-01 15:33N 37°57' E 023°36'1 0.6
2015-Mar-01 14:33N 37°57' E 023°37'1 1.3
2015-Mar-01 13:33N 37°57' E 023°35'1 1.3
2015-Mar-01 12:33N 37°57' E 023°37'1 0.9
2015-Mar-01 11:33N 37°57' E 023°36'1 0.9
2015-Mar-01 10:33N 37°57' E 023°37'0 0.0
2015-Mar-01 09:33N 37°57' E 023°37'0 0.0
2015-Mar-01 08:33N 37°57' E 023°37'1 1.2
2015-Mar-01 07:33N 37°56' E 023°36'1 1.2
2015-Mar-01 06:33N 37°57' E 023°37'0 0.5
2015-Mar-01 05:33N 37°58' E 023°36'0 0.5
2015-Mar-01 04:33N 37°57' E 023°37'1 0.1
2015-Feb-28 12:33N 37°57' E 023°36'1 0.9
2015-Feb-28 11:33N 37°57' E 023°37'0 0.0
2015-Feb-28 10:33N 37°57' E 023°37'1 1.1
2015-Feb-28 09:33N 37°57' E 023°36'1 1.1
2015-Feb-28 08:34N 37°57' E 023°37'0 0.0
2015-Feb-28 07:33N 37°57' E 023°37'0 0.0
2015-Feb-28 06:33N 37°57' E 023°37'0 0.0
2015-Feb-28 05:33N 37°57' E 023°37'0 0.0
2015-Feb-27 13:29N 37°57' E 023°37'0 0.0
2015-Feb-27 12:33N 37°57' E 023°37'0 0.0
2015-Feb-27 11:33N 37°57' E 023°37'0 0.0
2015-Feb-27 10:33N 37°57' E 023°37'0 0.0
2015-Feb-27 09:33N 37°57' E 023°37'0 0.0
2015-Feb-27 08:34N 37°57' E 023°37'0 0.0
2015-Feb-27 07:34N 37°57' E 023°37'1 1.1
2015-Feb-27 06:33N 37°57' E 023°35'0 0.2
2015-Feb-27 05:33N 37°57' E 023°35'1 1.1
2015-Feb-27 04:33N 37°57' E 023°37'1 0.1
2015-Feb-26 12:33N 37°57' E 023°35'0 0.3
2015-Feb-26 11:33N 37°57' E 023°35'1 1.3
2015-Feb-26 10:33N 37°57' E 023°37'0 0.0
2015-Feb-26 09:33N 37°57' E 023°37'0 0.0
2015-Feb-26 08:33N 37°57' E 023°37'0 0.0
2015-Feb-26 07:33N 37°57' E 023°37'0 0.0
2015-Feb-26 06:33N 37°57' E 023°37'1 0.5
2015-Feb-26 05:34N 37°57' E 023°36'1 0.4
2015-Feb-26 04:19N 37°57' E 023°37'  
2015-Feb-23 19:33N 37°57' E 023°35'1 0.5
2015-Feb-23 18:33N 37°57' E 023°35'1 1.3
2015-Feb-23 17:33N 37°57' E 023°37'0 0.0
2015-Feb-23 16:33N 37°57' E 023°37'0 0.0
2015-Feb-23 15:33N 37°57' E 023°37'0 0.0
2015-Feb-23 14:33N 37°57' E 023°37'0 0.0
2015-Feb-23 13:33N 37°57' E 023°37'0 0.0
2015-Feb-23 12:33N 37°57' E 023°37'0 0.0
2015-Feb-23 11:34N 37°57' E 023°37'0 0.0
2015-Feb-23 10:33N 37°57' E 023°37'0 0.0
2015-Feb-23 09:33N 37°57' E 023°37'0 0.0
2015-Feb-23 08:33N 37°57' E 023°37'0 0.0
2015-Feb-23 07:33N 37°57' E 023°37'0 0.0
2015-Feb-23 06:33N 37°57' E 023°37'1 1.1
2015-Feb-23 05:34N 37°57' E 023°35'1 1.1
2015-Feb-23 04:33N 37°57' E 023°37'3 0.2
2015-Feb-22 11:33N 37°58' E 023°33'0 0.1
2015-Feb-22 10:33N 37°58' E 023°33'6 6.5
2015-Feb-22 09:33N 37°60' E 023°26'2 2.4
2015-Feb-22 08:33N 37°58' E 023°23'1 1.2
2015-Feb-22 07:33N 37°57' E 023°23'5 5.1
2015-Feb-22 06:33N 38°01' E 023°28'7 6.7
2015-Feb-22 05:33N 37°57' E 023°35'0 0.1
2015-Feb-22 04:33N 37°57' E 023°35'0 0.0
2015-Feb-21 19:33N 37°57' E 023°35'1 1.1
2015-Feb-21 18:33N 37°57' E 023°37'0 0.0
2015-Feb-21 17:33N 37°57' E 023°37'0 0.0
2015-Feb-21 16:33N 37°57' E 023°37'0 0.0
2015-Feb-21 15:33N 37°57' E 023°37'0 0.0
2015-Feb-21 14:33N 37°57' E 023°37'0 0.0
2015-Feb-21 13:32N 37°57' E 023°37'0 0.0
2015-Feb-21 12:33N 37°57' E 023°37'0 0.0
2015-Feb-21 11:34N 37°57' E 023°37'0 0.0
2015-Feb-21 10:33N 37°57' E 023°37'0 0.0
2015-Feb-21 09:33N 37°57' E 023°37'0 0.0
2015-Feb-21 08:33N 37°57' E 023°37'0 0.0
2015-Feb-21 07:33N 37°57' E 023°37'1 1.0
2015-Feb-21 06:33N 37°57' E 023°36'1 1.0
2015-Feb-21 05:33N 37°57' E 023°37'0 0.0
2015-Feb-21 04:33N 37°57' E 023°37'0 0.0
2015-Feb-20 17:28N 37°57' E 023°37'2 2.3
2015-Feb-20 16:33N 37°57' E 023°34'0 0.0
2015-Feb-20 15:33N 37°58' E 023°34'2 2.4
2015-Feb-20 14:33N 37°56' E 023°36'2 1.5
2015-Feb-20 13:32N 37°57' E 023°35'1 1.0
2015-Feb-20 12:33N 37°57' E 023°36'1 0.3
2015-Feb-20 09:33N 37°57' E 023°35'1 1.1
2015-Feb-20 08:33N 37°57' E 023°37'0 0.3
2015-Feb-20 07:34N 37°58' E 023°36'0 0.5
2015-Feb-20 06:33N 37°57' E 023°36'0 0.1
2015-Feb-20 05:33N 37°57' E 023°36'1 0.7
2015-Feb-20 04:33N 37°57' E 023°37'0 0.0
2015-Feb-20 03:33N 37°57' E 023°37'  
Track history (hours):
 
Tides and Currents Weather Stations Pressure Air Temp Water Temp Dewpoint Dewpoint Depression Visibility Wind Speed Wind Dir Waves Ship Positions

Armadores I

Last reported at 2015-Mar-01 15:33 UTC. Time now 2015-Mar-02 01:06 UTC.
Position N 37°57' E 023°36'.

Length 32 m; draft 5.3 m.

Type: Tug. MMSI: 240694000.

Date/timePositionNaut miles runAvg speedWind from/ knotsBaromVisibWave heightAir tempDewpointWater temp
2015-Mar-01 15:33N 37°57' E 023°36'1 0.6
2015-Mar-01 14:33N 37°57' E 023°37'1 1.3
2015-Mar-01 13:33N 37°57' E 023°35'1 1.3
2015-Mar-01 12:33N 37°57' E 023°37'1 0.9
2015-Mar-01 11:33N 37°57' E 023°36'1 0.9
2015-Mar-01 10:33N 37°57' E 023°37'0 0.0
2015-Mar-01 09:33N 37°57' E 023°37'0 0.0
2015-Mar-01 08:33N 37°57' E 023°37'1 1.2
2015-Mar-01 07:33N 37°56' E 023°36'1 1.2
2015-Mar-01 06:33N 37°57' E 023°37'0 0.5
2015-Mar-01 05:33N 37°58' E 023°36'0 0.5
2015-Mar-01 04:33N 37°57' E 023°37'1 0.1
2015-Feb-28 12:33N 37°57' E 023°36'1 0.9
2015-Feb-28 11:33N 37°57' E 023°37'0 0.0
2015-Feb-28 10:33N 37°57' E 023°37'1 1.1
2015-Feb-28 09:33N 37°57' E 023°36'1 1.1
2015-Feb-28 08:34N 37°57' E 023°37'0 0.0
2015-Feb-28 07:33N 37°57' E 023°37'0 0.0
2015-Feb-28 06:33N 37°57' E 023°37'0 0.0
2015-Feb-28 05:33N 37°57' E 023°37'0 0.0
2015-Feb-27 13:29N 37°57' E 023°37'0 0.0
2015-Feb-27 12:33N 37°57' E 023°37'0 0.0
2015-Feb-27 11:33N 37°57' E 023°37'0 0.0
2015-Feb-27 10:33N 37°57' E 023°37'0 0.0
2015-Feb-27 09:33N 37°57' E 023°37'0 0.0
2015-Feb-27 08:34N 37°57' E 023°37'0 0.0
2015-Feb-27 07:34N 37°57' E 023°37'1 1.1
2015-Feb-27 06:33N 37°57' E 023°35'0 0.2
2015-Feb-27 05:33N 37°57' E 023°35'1 1.1
2015-Feb-27 04:33N 37°57' E 023°37'1 0.1
2015-Feb-26 12:33N 37°57' E 023°35'0 0.3
2015-Feb-26 11:33N 37°57' E 023°35'1 1.3
2015-Feb-26 10:33N 37°57' E 023°37'0 0.0
2015-Feb-26 09:33N 37°57' E 023°37'0 0.0
2015-Feb-26 08:33N 37°57' E 023°37'0 0.0
2015-Feb-26 07:33N 37°57' E 023°37'0 0.0
2015-Feb-26 06:33N 37°57' E 023°37'1 0.5
2015-Feb-26 05:34N 37°57' E 023°36'1 0.4
2015-Feb-26 04:19N 37°57' E 023°37'  
2015-Feb-23 19:33N 37°57' E 023°35'1 0.5
2015-Feb-23 18:33N 37°57' E 023°35'1 1.3
2015-Feb-23 17:33N 37°57' E 023°37'0 0.0
2015-Feb-23 16:33N 37°57' E 023°37'0 0.0
2015-Feb-23 15:33N 37°57' E 023°37'0 0.0
2015-Feb-23 14:33N 37°57' E 023°37'0 0.0
2015-Feb-23 13:33N 37°57' E 023°37'0 0.0
2015-Feb-23 12:33N 37°57' E 023°37'0 0.0
2015-Feb-23 11:34N 37°57' E 023°37'0 0.0
2015-Feb-23 10:33N 37°57' E 023°37'0 0.0
2015-Feb-23 09:33N 37°57' E 023°37'0 0.0
2015-Feb-23 08:33N 37°57' E 023°37'0 0.0
2015-Feb-23 07:33N 37°57' E 023°37'0 0.0
2015-Feb-23 06:33N 37°57' E 023°37'1 1.1
2015-Feb-23 05:34N 37°57' E 023°35'1 1.1
2015-Feb-23 04:33N 37°57' E 023°37'3 0.2
2015-Feb-22 11:33N 37°58' E 023°33'0 0.1
2015-Feb-22 10:33N 37°58' E 023°33'6 6.5
2015-Feb-22 09:33N 37°60' E 023°26'2 2.4
2015-Feb-22 08:33N 37°58' E 023°23'1 1.2
2015-Feb-22 07:33N 37°57' E 023°23'5 5.1
2015-Feb-22 06:33N 38°01' E 023°28'7 6.7
2015-Feb-22 05:33N 37°57' E 023°35'0 0.1
2015-Feb-22 04:33N 37°57' E 023°35'0 0.0
2015-Feb-21 19:33N 37°57' E 023°35'1 1.1
2015-Feb-21 18:33N 37°57' E 023°37'0 0.0
2015-Feb-21 17:33N 37°57' E 023°37'0 0.0
2015-Feb-21 16:33N 37°57' E 023°37'0 0.0
2015-Feb-21 15:33N 37°57' E 023°37'0 0.0
2015-Feb-21 14:33N 37°57' E 023°37'0 0.0
2015-Feb-21 13:32N 37°57' E 023°37'0 0.0
2015-Feb-21 12:33N 37°57' E 023°37'0 0.0
2015-Feb-21 11:34N 37°57' E 023°37'0 0.0
2015-Feb-21 10:33N 37°57' E 023°37'0 0.0
2015-Feb-21 09:33N 37°57' E 023°37'0 0.0
2015-Feb-21 08:33N 37°57' E 023°37'0 0.0
2015-Feb-21 07:33N 37°57' E 023°37'1 1.0
2015-Feb-21 06:33N 37°57' E 023°36'1 1.0
2015-Feb-21 05:33N 37°57' E 023°37'0 0.0
2015-Feb-21 04:33N 37°57' E 023°37'0 0.0
2015-Feb-20 17:28N 37°57' E 023°37'2 2.3
2015-Feb-20 16:33N 37°57' E 023°34'0 0.0
2015-Feb-20 15:33N 37°58' E 023°34'2 2.4
2015-Feb-20 14:33N 37°56' E 023°36'2 1.5
2015-Feb-20 13:32N 37°57' E 023°35'1 1.0
2015-Feb-20 12:33N 37°57' E 023°36'1 0.3
2015-Feb-20 09:33N 37°57' E 023°35'1 1.1
2015-Feb-20 08:33N 37°57' E 023°37'0 0.3
2015-Feb-20 07:34N 37°58' E 023°36'0 0.5
2015-Feb-20 06:33N 37°57' E 023°36'0 0.1
2015-Feb-20 05:33N 37°57' E 023°36'1 0.7
2015-Feb-20 04:33N 37°57' E 023°37'0 0.0
2015-Feb-20 03:33N 37°57' E 023°37'  

Dump ship's entire track history